Time;durP1;ratioP1;P1;durP2;ratioP2;P2;SDS_P1;SDS_P2;PMS_P1;PMS_P2;Temp;Humidity;BMP_temperature;BMP_pressure;BME280_temperature;BME280_humidity;BME280_pressure;Samples;Min_cycle;Max_cycle;Signal;HPM_P1;HPM_P2
2021/09/09 00:01:55;;;;;;;8.57;6.25;;;;;;;13.83;90.83;97575.88;4965234;28;20069;-67
2021/09/09 00:04:22;;;;;;;11.40;6.13;;;;;;;13.84;90.64;97583.06;4963819;28;20467;-67
2021/09/09 00:06:49;;;;;;;6.80;6.03;;;;;;;13.84;90.66;97583.06;4965074;28;20061;-67
2021/09/09 00:09:19;;;;;;;9.02;6.18;;;;;;;13.88;90.80;97589.47;4964330;28;20830;-67
2021/09/09 00:11:46;;;;;;;9.85;6.35;;;;;;;13.29;90.48;97471.38;4965024;28;20502;-67
2021/09/09 00:14:13;;;;;;;11.15;7.18;;;;;;;13.50;89.89;97501.47;4963637;28;20058;-67
2021/09/09 00:16:40;;;;;;;8.70;6.57;;;;;;;13.66;90.40;97554.97;4963387;28;20096;-68
2021/09/09 00:19:07;;;;;;;11.80;7.15;;;;;;;13.77;90.89;97566.28;4964693;28;20081;-67
2021/09/09 00:21:34;;;;;;;13.10;6.50;;;;;;;13.50;91.00;97527.34;4964581;28;20055;-67
2021/09/09 00:24:01;;;;;;;13.57;6.93;;;;;;;13.92;90.67;97591.13;4964789;28;20051;-68
2021/09/09 00:26:27;;;;;;;11.65;6.82;;;;;;;14.01;90.37;97599.19;4964936;28;20050;-69
2021/09/09 00:28:54;;;;;;;10.73;7.38;;;;;;;13.94;91.21;97576.81;4964858;28;20050;-67
2021/09/09 00:31:21;;;;;;;9.30;6.97;;;;;;;13.99;90.48;97585.63;4963373;28;20062;-67
2021/09/09 00:33:48;;;;;;;11.77;7.22;;;;;;;13.59;89.22;97538.19;4963547;28;20055;-68
2021/09/09 00:36:14;;;;;;;7.40;6.63;;;;;;;13.94;89.28;97571.25;4965107;28;20062;-68
2021/09/09 00:38:41;;;;;;;9.88;7.28;;;;;;;13.90;88.86;97570.38;4940529;28;20047;-67
2021/09/09 00:41:09;;;;;;;11.13;6.63;;;;;;;13.84;89.82;97588.63;4963304;28;20394;-69
2021/09/09 00:43:36;;;;;;;10.00;6.13;;;;;;;13.85;89.85;97579.88;4964869;28;20047;-67
2021/09/09 00:46:03;;;;;;;7.95;6.13;;;;;;;13.82;90.09;97585.41;4964583;28;20567;-67
2021/09/09 00:48:31;;;;;;;8.70;6.40;;;;;;;13.58;90.12;97554.09;4963210;28;20055;-68
2021/09/09 00:50:58;;;;;;;10.30;6.47;;;;;;;13.33;89.75;97513.97;4964632;28;20058;-67
2021/09/09 00:53:25;;;;;;;7.25;6.53;;;;;;;13.57;90.06;97546.94;4962911;28;20062;-69
2021/09/09 00:55:52;;;;;;;10.35;6.63;;;;;;;13.43;90.90;97546.72;4963054;28;20062;-67
2021/09/09 00:58:20;;;;;;;14.35;7.45;;;;;;;13.41;91.10;97535.16;4963482;28;20445;-68
2021/09/09 01:00:47;;;;;;;8.57;6.55;;;;;;;13.08;91.36;97496.16;4964258;28;20065;-67
2021/09/09 01:03:14;;;;;;;8.25;7.07;;;;;;;13.65;92.15;97586.78;4962831;28;20460;-67
2021/09/09 01:05:41;;;;;;;9.90;6.45;;;;;;;13.07;91.92;97494.53;4964208;28;20057;-67
2021/09/09 01:08:07;;;;;;;8.88;6.45;;;;;;;13.74;91.93;97589.31;4963963;28;20059;-68
2021/09/09 01:10:34;;;;;;;11.73;6.70;;;;;;;13.78;91.36;97584.56;4964393;28;20062;-68
2021/09/09 01:13:01;;;;;;;10.60;7.65;;;;;;;13.42;91.65;97545.09;4963858;28;20051;-67
2021/09/09 01:15:28;;;;;;;7.68;6.68;;;;;;;13.86;91.97;97589.06;4963352;28;20058;-68
2021/09/09 01:17:55;;;;;;;13.07;7.57;;;;;;;13.77;90.55;97560.69;4964108;28;20047;-67
2021/09/09 01:20:21;;;;;;;7.90;6.28;;;;;;;13.95;90.44;97606.28;4962823;28;20523;-67
2021/09/09 01:22:48;;;;;;;10.10;6.53;;;;;;;13.86;90.61;97592.66;4964158;28;20043;-67
2021/09/09 01:25:15;;;;;;;12.20;7.32;;;;;;;13.79;91.36;97592.53;4962696;28;20081;-67
2021/09/09 01:27:42;;;;;;;10.60;6.80;;;;;;;13.80;91.18;97593.34;4962917;28;20061;-67
2021/09/09 01:30:09;;;;;;;6.88;6.15;;;;;;;13.89;90.44;97588.28;4963651;28;20057;-67
2021/09/09 01:32:36;;;;;;;9.18;6.35;;;;;;;13.74;90.83;97572.59;4963749;28;20063;-68
2021/09/09 01:35:03;;;;;;;9.60;6.47;;;;;;;13.59;91.33;97544.53;4964054;28;20065;-67
2021/09/09 01:37:30;;;;;;;8.13;6.60;;;;;;;13.64;91.27;97552.56;4963562;28;20061;-67
2021/09/09 01:39:57;;;;;;;8.57;6.65;;;;;;;13.77;91.72;97580.19;4963812;28;20058;-68
2021/09/09 01:42:24;;;;;;;8.32;6.82;;;;;;;13.76;92.22;97579.38;4963718;28;20060;-69
2021/09/09 01:44:50;;;;;;;10.70;7.43;;;;;;;13.85;91.83;97579.09;4963911;28;20055;-68
2021/09/09 01:47:17;;;;;;;10.10;6.95;;;;;;;13.93;91.35;97580.78;4963968;28;20058;-67
2021/09/09 01:49:44;;;;;;;9.07;7.32;;;;;;;14.04;90.22;97582.50;4962227;28;20050;-69
2021/09/09 01:52:11;;;;;;;9.50;7.13;;;;;;;14.11;89.93;97576.22;4962247;28;20062;-67
2021/09/09 01:54:38;;;;;;;8.90;6.65;;;;;;;14.19;89.35;97577.91;4962128;28;20051;-67
2021/09/09 01:57:05;;;;;;;9.88;6.28;;;;;;;13.65;89.05;97519.97;4963265;28;20063;-69
2021/09/09 01:59:31;;;;;;;8.57;6.25;;;;;;;13.94;89.77;97548.97;4961972;28;20548;-68
2021/09/09 02:01:58;;;;;;;8.77;6.90;;;;;;;14.12;89.68;97577.81;4961889;28;20060;-68
2021/09/09 02:04:28;;;;;;;7.70;6.00;;;;;;;14.21;89.47;97575.56;4962697;28;20057;-67
2021/09/09 02:06:56;;;;;;;9.85;6.90;;;;;;;13.89;89.60;97538.16;4962963;28;20043;-67
2021/09/09 02:09:23;;;;;;;11.38;6.43;;;;;;;14.15;89.31;97577.06;4963395;28;20240;-67
2021/09/09 02:11:50;;;;;;;7.25;6.55;;;;;;;14.18;89.16;97573.53;4961851;28;20059;-67
2021/09/09 02:14:16;;;;;;;7.55;6.05;;;;;;;14.19;89.01;97575.13;4963440;28;20081;-67
2021/09/09 02:16:43;;;;;;;9.05;6.47;;;;;;;14.20;89.19;97576.72;4963134;28;20077;-67
2021/09/09 02:19:10;;;;;;;8.27;6.28;;;;;;;13.11;89.87;97414.72;4961625;28;20093;-67
2021/09/09 02:21:37;;;;;;;10.73;6.78;;;;;;;14.13;89.42;97569.09;4963084;28;20066;-67
2021/09/09 02:24:04;;;;;;;8.82;6.65;;;;;;;14.10;89.42;97563.50;4962914;28;20062;-68
2021/09/09 02:26:30;;;;;;;7.43;6.18;;;;;;;13.67;88.95;97485.00;4963004;28;20054;-67
2021/09/09 02:28:57;;;;;;;8.30;6.55;;;;;;;14.14;89.63;97575.47;4961574;28;20073;-68
2021/09/09 02:31:24;;;;;;;8.82;6.40;;;;;;;14.01;89.22;97526.75;4961978;28;20065;-68
2021/09/09 02:33:52;;;;;;;9.05;5.97;;;;;;;14.21;89.73;97558.84;4961403;28;20120;-68
2021/09/09 02:36:18;;;;;;;8.07;6.45;;;;;;;14.22;89.51;97554.88;4961303;28;20112;-68
2021/09/09 02:38:45;;;;;;;10.65;6.68;;;;;;;14.15;90.22;97560.34;4962519;28;20054;-67
2021/09/09 02:41:12;;;;;;;10.38;6.85;;;;;;;13.85;90.20;97515.84;4962871;28;20444;-68
2021/09/09 02:43:38;;;;;;;8.75;7.18;;;;;;;13.90;90.07;97514.69;4962747;28;20065;-67
2021/09/09 02:46:05;;;;;;;10.52;6.47;;;;;;;14.14;90.46;97553.19;4960941;28;20422;-67
2021/09/09 02:48:32;;;;;;;8.85;7.10;;;;;;;14.12;90.32;97550.78;4962622;28;20063;-67
2021/09/09 02:50:59;;;;;;;11.52;6.10;;;;;;;13.71;90.16;97504.53;4961473;28;20146;-68
2021/09/09 02:53:25;;;;;;;8.15;5.70;;;;;;;14.12;90.55;97547.19;4963218;28;20073;-68
2021/09/09 02:55:52;;;;;;;9.18;5.82;;;;;;;14.16;90.52;97550.81;4961319;28;20142;-69
2021/09/09 02:58:19;;;;;;;10.98;6.20;;;;;;;12.67;90.36;97346.97;4962961;28;20436;-67
2021/09/09 03:00:45;;;;;;;9.68;6.18;;;;;;;13.79;92.72;97541.59;4962476;28;20058;-68
2021/09/09 03:03:13;;;;;;;13.02;5.88;;;;;;;13.57;92.63;97496.81;4961008;28;20493;-67
2021/09/09 03:05:40;;;;;;;8.20;6.05;;;;;;;13.84;92.62;97527.34;4962337;28;20055;-68
2021/09/09 03:08:06;;;;;;;6.45;5.57;;;;;;;13.73;92.92;97504.16;4962261;28;20066;-67
2021/09/09 03:10:33;;;;;;;8.27;6.07;;;;;;;13.95;92.66;97533.84;4961966;28;20418;-67
2021/09/09 03:13:00;;;;;;;7.38;5.70;;;;;;;13.96;92.73;97530.69;4962310;28;20433;-67
2021/09/09 03:15:26;;;;;;;6.65;5.82;;;;;;;13.22;92.20;97396.19;4961720;28;20433;-67
2021/09/09 03:17:53;;;;;;;9.57;5.70;;;;;;;14.00;92.41;97516.81;4962222;28;20082;-68
2021/09/09 03:20:20;;;;;;;8.77;5.13;;;;;;;13.45;92.00;97433.03;4961132;28;20063;-67
2021/09/09 03:22:46;;;;;;;8.13;5.43;;;;;;;13.95;93.12;97528.28;4962535;28;20059;-67
2021/09/09 03:25:13;;;;;;;8.48;5.65;;;;;;;13.53;92.76;97459.78;4960538;28;20061;-69
2021/09/09 03:27:40;;;;;;;9.07;5.85;;;;;;;14.14;91.67;97525.31;4960865;28;20047;-67
2021/09/09 03:30:07;;;;;;;14.20;6.07;;;;;;;12.02;91.42;97201.22;4960818;28;20148;-68
2021/09/09 03:32:34;;;;;;;10.07;6.10;;;;;;;13.86;92.03;97514.66;4962090;28;20441;-67
2021/09/09 03:35:01;;;;;;;8.63;6.03;;;;;;;14.07;92.47;97536.41;4962361;28;20061;-67
2021/09/09 03:37:28;;;;;;;8.52;6.38;;;;;;;14.06;92.85;97535.59;4961227;28;20055;-67
2021/09/09 03:39:54;;;;;;;8.02;6.30;;;;;;;13.78;92.48;97474.00;4962774;28;20471;-67
2021/09/09 03:42:21;;;;;;;10.82;5.88;;;;;;;14.07;92.72;97536.41;4981420;28;20061;-68
2021/09/09 03:44:48;;;;;;;8.23;6.03;;;;;;;14.12;92.27;97527.66;4981577;28;20050;-67
2021/09/09 03:47:15;;;;;;;8.73;6.15;;;;;;;13.58;93.57;97462.22;4979483;28;20488;-68
2021/09/09 03:49:42;;;;;;;10.23;5.90;;;;;;;13.74;93.16;97500.19;4981275;28;20050;-68
2021/09/09 03:52:08;;;;;;;8.30;5.63;;;;;;;13.81;92.67;97489.13;4981130;28;20050;-67
2021/09/09 03:54:36;;;;;;;8.70;5.50;;;;;;;14.10;93.29;97524.50;4979747;28;20436;-67
2021/09/09 03:57:03;;;;;;;9.80;5.35;;;;;;;13.77;92.58;97466.03;4981215;28;20051;-67
2021/09/09 03:59:29;;;;;;;9.13;5.82;;;;;;;14.15;92.69;97526.91;4981254;28;20055;-66
2021/09/09 04:01:56;;;;;;;9.57;6.25;;;;;;;14.18;92.45;97526.16;4979817;28;20058;-67
2021/09/09 04:04:23;;;;;;;8.43;5.40;;;;;;;13.89;91.76;97490.81;4981126;28;20050;-68
2021/09/09 04:06:50;;;;;;;7.93;5.00;;;;;;;14.20;91.94;97534.94;4981059;28;20058;-67
2021/09/09 04:09:17;;;;;;;7.60;5.25;;;;;;;13.49;92.40;97417.19;4981180;28;20097;-68
2021/09/09 04:11:43;;;;;;;7.75;5.53;;;;;;;14.14;92.39;97525.31;4981031;28;20065;-66
2021/09/09 04:14:11;;;;;;;9.10;5.78;;;;;;;14.15;92.06;97526.91;4980864;28;20054;-67
2021/09/09 04:16:38;;;;;;;11.07;6.00;;;;;;;14.15;91.91;97532.47;4980785;28;20065;-67
2021/09/09 04:19:05;;;;;;;10.80;6.22;;;;;;;13.31;92.68;97432.88;4979831;28;20089;-67
2021/09/09 04:21:32;;;;;;;8.75;5.30;;;;;;;14.29;91.47;97530.69;4980464;28;20070;-67
2021/09/09 04:23:59;;;;;;;8.65;5.70;;;;;;;14.25;91.76;97534.63;4980996;28;20061;-67
2021/09/09 04:26:26;;;;;;;9.90;5.82;;;;;;;13.37;92.65;97389.59;4981800;28;20436;-68
2021/09/09 04:28:53;;;;;;;13.98;5.28;;;;;;;14.34;91.60;97518.38;4984318;28;20049;-68
2021/09/09 04:31:19;;;;;;;9.20;5.82;;;;;;;14.36;91.81;97522.41;4983385;28;20062;-68
2021/09/09 04:33:46;;;;;;;7.82;6.07;;;;;;;14.19;91.36;97483.19;4982492;28;20454;-68
2021/09/09 04:36:13;;;;;;;6.93;5.35;;;;;;;14.53;90.91;97513.41;4983858;28;20460;-68
2021/09/09 04:38:39;;;;;;;10.55;6.05;;;;;;;14.19;90.54;97472.03;4982585;28;20068;-67
2021/09/09 04:41:06;;;;;;;8.40;5.45;;;;;;;14.54;91.13;97517.00;4983842;28;20069;-66
2021/09/09 04:43:34;;;;;;;10.00;4.97;;;;;;;14.31;90.14;97460.63;4983896;28;20065;-67
2021/09/09 04:46:01;;;;;;;7.65;5.45;;;;;;;14.39;90.04;97470.66;4982363;28;20064;-68
2021/09/09 04:48:28;;;;;;;10.35;6.03;;;;;;;14.78;89.33;97521.97;4983645;28;20050;-67
2021/09/09 04:50:55;;;;;;;17.33;6.63;;;;;;;14.86;88.93;97523.63;4983837;28;20066;-67
2021/09/09 04:53:22;;;;;;;8.23;5.10;;;;;;;14.42;89.79;97464.31;4982357;28;20069;-68
2021/09/09 04:55:49;;;;;;;16.58;5.30;;;;;;;14.92;88.98;97516.53;4964377;28;20047;-68
2021/09/09 04:58:16;;;;;;;9.38;4.70;;;;;;;14.90;88.82;97508.53;4964404;28;20188;-68
2021/09/09 05:00:42;;;;;;;11.52;4.75;;;;;;;14.44;88.86;97425.72;4964023;28;20063;-69
2021/09/09 05:03:09;;;;;;;10.25;5.00;;;;;;;14.98;89.02;97512.19;4963762;28;20058;-69
2021/09/09 05:05:36;;;;;;;11.18;5.07;;;;;;;15.12;88.42;97513.09;4963789;28;20533;-68
2021/09/09 05:08:03;;;;;;;9.88;4.82;;;;;;;15.02;87.45;97476.72;4964056;28;20558;-68
2021/09/09 05:10:30;;;;;;;6.47;4.80;;;;;;;15.39;86.93;97513.69;4962768;28;20055;-68
2021/09/09 05:12:57;;;;;;;11.45;5.60;;;;;;;15.43;86.49;97514.50;4967671;28;20141;-67
2021/09/09 05:15:24;;;;;;;7.55;4.60;;;;;;;15.60;85.34;97513.78;4983518;28;20149;-68
2021/09/09 05:17:51;;;;;;;14.00;5.50;;;;;;;15.13;85.48;97438.53;4981738;28;20073;-67
2021/09/09 05:20:18;;;;;;;12.00;5.78;;;;;;;15.77;84.92;97510.28;4983867;28;20084;-68
2021/09/09 05:22:44;;;;;;;11.10;5.95;;;;;;;16.11;82.94;97506.00;4981931;28;20157;-67
2021/09/09 05:25:11;;;;;;;11.93;5.45;;;;;;;16.34;81.49;97503.66;4983387;28;20177;-67
2021/09/09 05:27:38;;;;;;;9.07;5.75;;;;;;;16.49;80.56;97498.91;4983201;28;20054;-66
2021/09/09 05:30:06;;;;;;;9.45;5.90;;;;;;;16.84;78.96;97506.53;4981771;28;20058;-66
2021/09/09 05:32:33;;;;;;;11.10;5.40;;;;;;;16.81;77.02;97449.38;4966200;28;20050;-66
2021/09/09 05:35:00;;;;;;;7.28;5.35;;;;;;;17.63;74.38;97490.81;5085228;28;20419;-67
2021/09/09 05:37:27;;;;;;;7.47;4.90;;;;;;;17.59;73.06;97452.81;5083973;28;20055;-67
2021/09/09 05:39:54;;;;;;;11.52;4.55;;;;;;;18.05;72.10;97489.84;5084112;28;20060;-67
2021/09/09 05:42:21;;;;;;;7.28;4.97;;;;;;;18.08;71.26;97494.66;5085446;28;20059;-68
2021/09/09 05:44:48;;;;;;;11.15;4.55;;;;;;;17.74;71.37;97474.78;5084251;28;20063;-66
2021/09/09 05:47:14;;;;;;;8.20;4.20;;;;;;;17.85;71.14;97432.66;5078296;28;20294;-67
2021/09/09 05:49:42;;;;;;;14.88;4.80;;;;;;;18.27;70.87;97480.13;5081962;28;20465;-62
2021/09/09 05:52:09;;;;;;;9.88;4.82;;;;;;;18.22;71.06;97488.16;5083136;28;20123;-61
2021/09/09 05:54:36;;;;;;;12.07;4.70;;;;;;;17.23;71.30;97325.31;5089251;28;20054;-63
2021/09/09 05:57:03;;;;;;;13.63;5.53;;;;;;;18.38;70.38;97480.88;5084134;28;20052;-65
2021/09/09 05:59:30;;;;;;;20.65;5.22;;;;;;;18.47;70.42;97484.00;5081818;28;20569;-69
2021/09/09 06:01:57;;;;;;;11.45;4.55;;;;;;;18.70;69.46;97478.63;5082147;28;20048;-63
2021/09/09 06:04:27;;;;;;;8.90;4.53;;;;;;;18.49;69.30;97442.31;5083582;28;20136;-66
2021/09/09 06:06:54;;;;;;;9.15;4.70;;;;;;;19.03;68.45;97457.50;5082979;28;20058;-68
2021/09/09 06:09:24;;;;;;;10.32;5.00;;;;;;;19.13;67.15;97437.72;5083810;28;20737;-68
2021/09/09 06:11:51;;;;;;;11.95;4.78;;;;;;;19.16;67.02;97419.22;5099037;28;20060;-68
2021/09/09 06:14:18;;;;;;;7.45;4.35;;;;;;;19.34;66.22;97409.44;5083591;28;20530;-64
2021/09/09 06:16:44;;;;;;;7.93;4.65;;;;;;;19.97;63.37;97482.94;5086369;28;20770;-63
2021/09/09 06:19:11;;;;;;;7.10;2.92;;;;;;;18.92;62.59;97342.47;5090846;28;20040;-64
2021/09/09 06:21:38;;;;;;;6.55;3.15;;;;;;;19.13;62.25;97363.91;5084236;28;20055;-62
2021/09/09 06:24:08;;;;;;;5.55;3.20;;;;;;;19.24;61.34;97379.41;5084022;28;20553;-63
2021/09/09 06:26:34;;;;;;;3.95;2.75;;;;;;;19.82;59.57;97428.13;5081985;28;20056;-68
2021/09/09 06:29:01;;;;;;;9.43;3.20;;;;;;;20.26;58.55;97464.50;5084586;28;20054;-71
2021/09/09 06:31:28;;;;;;;9.68;3.72;;;;;;;20.48;57.72;97479.88;5082829;28;20078;-65
2021/09/09 06:33:56;;;;;;;6.20;3.33;;;;;;;20.85;56.26;97496.56;5080274;28;20048;-67
2021/09/09 06:36:22;;;;;;;13.40;3.28;;;;;;;20.94;56.00;97488.38;5063500;28;20148;-63
2021/09/09 06:38:49;;;;;;;7.25;3.17;;;;;;;21.01;54.24;97465.75;5082896;28;20044;-66
2021/09/09 06:41:16;;;;;;;7.20;3.53;;;;;;;21.26;53.58;97494.28;5083852;28;20059;-66
2021/09/09 06:43:45;;;;;;;7.40;3.53;;;;;;;20.36;54.12;97373.53;5083091;28;20597;-61
2021/09/09 06:46:12;;;;;;;8.73;3.35;;;;;;;21.14;53.67;97494.91;5083404;28;20058;-63
2021/09/09 06:48:39;;;;;;;9.13;3.28;;;;;;;21.10;53.92;97490.56;5098678;28;20081;-65
2021/09/09 06:51:06;;;;;;;4.85;3.22;;;;;;;20.80;53.70;97454.84;5081500;28;20519;-62
2021/09/09 06:53:32;;;;;;;8.18;3.08;;;;;;;21.07;53.63;97494.25;5083332;28;20043;-68
2021/09/09 06:55:59;;;;;;;6.45;3.13;;;;;;;20.92;54.21;97496.47;5083016;28;20098;-62
2021/09/09 06:58:26;;;;;;;52.17;31.38;;;;;;;21.17;53.63;97496.88;5066841;28;20040;-70
2021/09/09 07:00:53;;;;;;;7.95;3.42;;;;;;;21.23;52.44;97489.50;5081520;28;20052;-62
2021/09/09 07:03:20;;;;;;;12.27;5.13;;;;;;;21.40;52.73;97494.06;5083378;28;20052;-65
2021/09/09 07:05:47;;;;;;;9.60;2.92;;;;;;;21.15;51.01;97428.88;5083527;28;20437;-71
2021/09/09 07:08:14;;;;;;;5.70;3.85;;;;;;;21.14;51.03;97407.56;5083310;28;20079;-66
2021/09/09 07:10:40;;;;;;;6.68;3.28;;;;;;;20.99;50.25;97338.63;5096509;28;20056;-69
2021/09/09 07:13:12;;;;;;;8.70;3.25;;;;;;;22.10;49.45;97472.13;5087002;28;20131;-71
2021/09/09 07:15:40;;;;;;;5.10;3.80;;;;;;;22.27;48.59;97490.72;5072100;28;20109;-67
2021/09/09 07:18:07;;;;;;;12.75;3.95;;;;;;;22.82;47.63;97487.03;5080999;28;20056;-63
2021/09/09 07:20:34;;;;;;;8.02;3.50;;;;;;;23.06;47.70;97482.81;5082289;28;20056;-67
2021/09/09 07:23:00;;;;;;;5.38;3.92;;;;;;;22.24;45.83;97285.53;5083009;28;20059;-68
2021/09/09 07:25:27;;;;;;;5.28;3.47;;;;;;;23.28;45.85;97481.88;5097927;28;20052;-68
2021/09/09 07:27:54;;;;;;;8.70;3.75;;;;;;;22.53;46.96;97402.19;5083376;28;20048;-66
2021/09/09 07:30:21;;;;;;;6.03;3.40;;;;;;;22.69;46.42;97398.56;5083141;28;20074;-66
2021/09/09 07:32:48;;;;;;;7.20;3.15;;;;;;;23.26;46.37;97477.88;5083440;28;20106;-69
2021/09/09 07:35:14;;;;;;;4.20;3.20;;;;;;;22.65;46.47;97392.25;5083456;28;20522;-69
2021/09/09 07:37:44;;;;;;;5.25;3.65;;;;;;;22.01;46.62;97348.56;5082200;28;20058;-73
2021/09/09 07:40:11;;;;;;;7.78;3.97;;;;;;;22.60;47.76;97469.00;5082082;28;20048;-72
2021/09/09 07:42:41;;;;;;;9.57;3.42;;;;;;;22.34;47.74;97412.31;5080661;28;20059;-73
2021/09/09 07:45:08;;;;;;;8.07;3.00;;;;;;;22.87;47.54;97444.16;5083312;28;20056;-68
2021/09/09 07:47:36;;;;;;;4.78;2.78;;;;;;;21.67;49.35;97463.69;5082297;28;20121;-67
2021/09/09 07:50:05;;;;;;;10.90;4.32;;;;;;;20.49;49.95;97321.81;5080348;28;20114;-70
2021/09/09 07:52:33;;;;;;;5.95;3.35;;;;;;;21.68;50.21;97487.06;5081284;28;20055;-71
2021/09/09 07:54:59;;;;;;;6.53;2.92;;;;;;;21.91;49.36;97473.72;5081970;28;20060;-67
2021/09/09 07:57:26;;;;;;;8.65;3.40;;;;;;;22.42;48.86;97438.34;5078228;28;20056;-69
2021/09/09 07:59:56;;;;;;;6.90;4.07;;;;;;;21.35;48.97;97324.63;5082813;28;20595;-67
2021/09/09 08:02:22;;;;;;;5.93;3.03;;;;;;;21.86;49.28;97482.69;5083582;28;20058;-68
2021/09/09 08:04:50;;;;;;;3.53;2.05;;;;;;;20.40;52.03;97425.72;5084418;28;20070;-68
2021/09/09 08:07:16;;;;;;;9.60;4.85;;;;;;;20.43;52.03;97339.63;5086835;28;20064;-70
2021/09/09 08:09:43;;;;;;;6.97;2.88;;;;;;;21.27;50.34;97400.06;5087657;28;20450;-69
2021/09/09 08:12:10;;;;;;;12.05;3.92;;;;;;;21.81;49.91;97423.97;5086403;28;20140;-68
2021/09/09 08:14:37;;;;;;;5.63;2.88;;;;;;;21.91;51.33;97482.19;5083054;28;20068;-67
2021/09/09 08:17:04;;;;;;;5.30;2.70;;;;;;;19.38;51.64;97151.69;5089868;28;20067;-69
2021/09/09 08:19:31;;;;;;;11.07;5.30;;;;;;;21.23;52.81;97483.09;5099057;28;20053;-67
2021/09/09 08:21:57;;;;;;;10.13;3.95;;;;;;;21.78;51.61;97484.06;5098247;28;20131;-70
2021/09/09 08:24:24;;;;;;;7.53;2.70;;;;;;;20.00;50.42;97169.94;5066343;28;20051;-68
2021/09/09 08:26:51;;;;;;;6.88;3.85;;;;;;;21.07;51.38;97351.34;5066984;28;20591;-69
2021/09/09 08:29:19;;;;;;;12.55;6.70;;;;;;;21.99;51.35;97430.03;5073766;28;20044;-68
2021/09/09 08:31:45;;;;;;;15.88;5.22;;;;;;;21.64;51.28;97435.59;5085816;28;20433;-68
2021/09/09 08:34:12;;;;;;;9.63;4.72;;;;;;;22.17;50.55;97469.97;5086544;28;20044;-67
2021/09/09 08:36:39;;;;;;;14.38;4.43;;;;;;;22.37;50.06;97436.03;5078224;28;20435;-68
2021/09/09 08:39:05;;;;;;;9.77;3.47;;;;;;;22.75;48.60;97509.81;5083820;28;20043;-68
2021/09/09 08:41:32;;;;;;;16.77;5.70;;;;;;;22.21;49.23;97470.66;5084284;28;20127;-69
2021/09/09 08:43:59;;;;;;;8.20;3.13;;;;;;;21.46;49.23;97317.53;5090400;28;20056;-71
2021/09/09 08:46:26;;;;;;;6.82;3.63;;;;;;;22.99;49.04;97469.66;5085410;28;20518;-70
2021/09/09 08:48:56;;;;;;;6.18;2.97;;;;;;;23.36;47.19;97471.16;5078726;28;20045;-67
2021/09/09 08:51:22;;;;;;;6.45;3.10;;;;;;;23.29;47.33;97466.50;5077804;28;20609;-65
2021/09/09 08:53:50;;;;;;;4.03;2.70;;;;;;;23.01;46.52;97388.06;5085978;28;20135;-62
2021/09/09 08:56:17;;;;;;;4.40;3.10;;;;;;;23.68;45.55;97465.41;5085633;28;20597;-66
2021/09/09 08:58:44;;;;;;;8.15;3.88;;;;;;;23.27;46.25;97418.06;5085807;28;20059;-68
2021/09/09 09:01:18;;;;;;;5.35;3.22;;;;;;;23.80;45.95;97430.72;5085807;28;20120;-70
2021/09/09 09:03:54;;;;;;;4.68;2.92;;;;;;;24.54;44.63;97457.63;5085563;28;20055;-63
2021/09/09 09:06:26;;;;;;;12.50;8.98;;;;;;;24.80;43.51;97456.38;5081958;28;20487;-68
2021/09/09 09:08:58;;;;;;;43.85;15.43;;;;;;;24.86;43.11;97453.78;5083065;28;20059;-71
2021/09/09 09:11:34;;;;;;;19.90;12.60;;;;;;;24.14;44.77;97447.16;5084864;28;20635;-68
2021/09/09 09:14:01;;;;;;;13.88;8.30;;;;;;;24.33;44.06;97420.69;5081861;28;20211;-69
2021/09/09 09:16:28;;;;;;;5.65;3.63;;;;;;;24.28;42.72;97361.78;5083218;28;20054;-71
2021/09/09 09:18:59;;;;;;;7.10;3.10;;;;;;;25.31;42.10;97429.53;5081489;28;20112;-61
2021/09/09 09:21:29;;;;;;;13.20;7.13;;;;;;;24.88;41.93;97372.72;5098291;28;20462;-72
2021/09/09 09:24:00;;;;;;;8.45;3.50;;;;;;;25.00;41.69;97441.97;5069975;28;20056;-71
2021/09/09 09:26:27;;;;;;;8.23;4.35;;;;;;;24.72;41.27;97403.25;5081969;28;20429;-69
2021/09/09 09:28:56;;;;;;;7.35;3.58;;;;;;;25.15;42.02;97432.53;5074669;28;20063;-69
2021/09/09 09:31:29;;;;;;;6.60;3.05;;;;;;;25.13;41.14;97360.53;5085141;28;20100;-66
2021/09/09 09:33:58;;;;;;;7.00;3.03;;;;;;;25.90;40.29;97385.25;5100489;28;20102;-66
2021/09/09 09:36:30;;;;;;;6.65;3.20;;;;;;;26.36;40.35;97424.06;5083822;28;20052;-69
2021/09/09 09:39:19;;;;;;;8.32;3.20;;;;;;;25.52;39.91;97314.53;5098483;28;20613;-69
2021/09/09 09:41:52;;;;;;;7.38;4.03;;;;;;;25.98;40.28;97414.97;5100462;28;20265;-70
2021/09/09 09:44:29;;;;;;;7.97;4.05;;;;;;;25.73;40.74;97420.78;5084970;28;20080;-69
2021/09/09 09:47:20;;;;;;;7.13;3.10;;;;;;;25.31;40.99;97372.81;5085034;28;20056;-69
2021/09/09 09:49:54;;;;;;;8.55;3.58;;;;;;;25.84;40.51;97404.16;5084636;28;20048;-69
2021/09/09 09:52:29;;;;;;;6.45;3.20;;;;;;;26.36;39.47;97407.81;5084470;28;20062;-71
2021/09/09 09:55:00;;;;;;;6.70;3.78;;;;;;;26.10;39.33;97402.75;5085075;28;20140;-72
2021/09/09 09:57:29;;;;;;;8.85;3.53;;;;;;;26.04;40.62;97401.78;5084357;28;20091;-70
2021/09/09 09:59:56;;;;;;;5.05;3.67;;;;;;;25.39;40.11;97324.38;5099905;28;20549;-74
2021/09/09 10:02:24;;;;;;;6.85;3.05;;;;;;;25.12;39.63;97325.69;5084469;28;20541;-67
2021/09/09 10:04:52;;;;;;;6.15;2.70;;;;;;;25.35;38.69;97332.22;5084847;28;20812;-66
2021/09/09 10:07:19;;;;;;;5.13;3.20;;;;;;;25.44;38.50;97329.44;5084568;28;20055;-64
2021/09/09 10:09:53;;;;;;;6.70;2.88;;;;;;;24.42;39.01;97146.81;5098487;28;20265;-71
2021/09/09 10:12:25;;;;;;;4.68;2.92;;;;;;;25.88;39.40;97450.22;5084318;28;20052;-73
2021/09/09 10:14:55;;;;;;;11.75;3.90;;;;;;;25.52;40.40;97415.88;5082841;28;20056;-68
2021/09/09 10:17:24;;;;;;;4.80;3.08;;;;;;;25.46;40.69;97412.03;5083994;28;20121;-64
2021/09/09 10:19:51;;;;;;;7.63;3.25;;;;;;;25.51;40.41;97408.63;5082857;28;20142;-68
2021/09/09 10:22:22;;;;;;;10.25;3.50;;;;;;;25.16;40.45;97377.41;5084536;28;20048;-69
2021/09/09 10:25:05;;;;;;;4.75;2.80;;;;;;;25.16;40.68;97371.75;5084230;28;20052;-71
2021/09/09 10:27:41;;;;;;;6.03;3.13;;;;;;;25.01;41.39;97404.66;5084551;28;20067;-62
2021/09/09 10:30:19;;;;;;;8.73;2.75;;;;;;;24.13;42.54;97304.81;5084105;28;20264;-62
2021/09/09 10:32:46;;;;;;;7.97;3.42;;;;;;;24.83;42.56;97407.28;5082585;28;20048;-68
2021/09/09 10:35:16;;;;;;;7.20;3.47;;;;;;;24.57;42.62;97402.88;5084684;28;20258;-68
2021/09/09 10:37:55;;;;;;;7.00;3.83;;;;;;;24.51;42.74;97406.72;5082403;28;20109;-71
2021/09/09 10:40:31;;;;;;;4.10;2.97;;;;;;;24.37;42.66;97405.16;5082738;28;20052;-65
2021/09/09 10:43:04;;;;;;;6.53;2.90;;;;;;;24.05;43.34;97368.53;5082700;28;20114;-69
2021/09/09 10:45:34;;;;;;;;;;;;;;;24.18;43.85;97405.34;5085162;28;20481;-64
2021/09/09 10:48:06;;;;;;;6.75;4.05;;;;;;;24.06;44.48;97400.47;5083928;28;19927;-68
2021/09/09 10:50:34;;;;;;;5.03;3.10;;;;;;;23.97;44.90;97403.16;5084026;28;20048;-71
2021/09/09 10:53:07;;;;;;;4.18;2.90;;;;;;;23.81;45.26;97401.19;5083571;28;20071;-72
2021/09/09 10:55:37;;;;;;;5.63;2.42;;;;;;;22.33;45.15;97184.88;5084340;28;20143;-70
2021/09/09 10:58:25;;;;;;;5.32;2.83;;;;;;;23.57;46.03;97397.03;5081286;28;20044;-69
2021/09/09 11:00:52;;;;;;;5.30;2.70;;;;;;;23.56;46.07;97395.44;5110079;27;20054;-67
2021/09/09 11:03:42;;;;;;;4.47;3.17;;;;;;;23.59;45.82;97400.22;5082074;28;20151;-73
2021/09/09 11:06:29;;;;;;;3.92;2.72;;;;;;;22.85;45.68;97255.28;5083047;28;20537;-67
2021/09/09 11:08:58;;;;;;;8.45;3.00;;;;;;;16.08;44.71;96266.09;5083186;28;20403;-70
2021/09/09 11:11:28;;;;;;;9.07;3.20;;;;;;;23.99;43.99;97310.91;5082747;28;20121;-69
2021/09/09 11:14:06;;;;;;;6.68;3.50;;;;;;;23.80;43.15;97292.88;5083104;28;20048;-73
2021/09/09 11:16:35;;;;;;;7.85;3.50;;;;;;;23.92;43.95;97310.31;5082972;28;20086;-71
2021/09/09 11:19:04;;;;;;;7.88;3.08;;;;;;;24.50;43.46;97379.66;5081951;28;20079;-69
2021/09/09 11:21:41;;;;;;;5.65;3.25;;;;;;;24.76;43.07;97382.03;5083303;28;20059;-70
2021/09/09 11:24:10;;;;;;;3.40;3.10;;;;;;;24.63;43.07;97329.44;5083166;28;20055;-67
2021/09/09 11:26:39;;;;;;;5.25;2.88;;;;;;;25.10;42.26;97362.22;5082160;28;20048;-74
2021/09/09 11:29:06;;;;;;;6.30;2.75;;;;;;;25.12;42.64;97354.06;5083057;28;20058;-69
2021/09/09 11:31:50;;;;;;;3.33;2.97;;;;;;;25.16;42.12;97303.69;5080792;28;20228;-71
2021/09/09 11:34:26;;;;;;;7.25;3.70;;;;;;;25.12;42.08;97325.69;5081445;28;20066;-67
2021/09/09 11:36:53;;;;;;;6.40;3.17;;;;;;;25.74;41.16;97342.88;5082656;28;20059;-62